KOMA/OMA METAR and TAF weather

Enter ICAO airport designator
Station Type Date Time Source
KOMA METAR 2021/09/20 05:52 UTC NOAA

KOMA 200552Z 16018G25KT 10SM CLR 25/18 A2976 RMK AO2 SLP065 T02500183 10300 20244 403280200 58013


Station Type Date Time Source
KOMA Decoded METAR 2021/09/20 05:52 UTC NOAA

OMAHA EPPLEY AIRFIELD, NE, United States (KOMA) 41-18N 095-54W 312M
Sep 20, 2021 - 01:52 AM EDT / 2021.09.20 0552 UTC
Wind: from the SSE (160 degrees) at 21 MPH (18 KT) gusting to 29 MPH (25 KT):0
Visibility: 10 mile(s):0
Sky conditions: clear
Temperature: 77.0 F (25.0 C)
Dew Point: 64.9 F (18.3 C)
Relative Humidity: 66%
Pressure (altimeter): 29.76 in. Hg (1007 hPa)
Pressure tendency: 0.04 inches (1.3 hPa) lower than three hours ago
ob: KOMA 200552Z 16018G25KT 10SM CLR 25/18 A2976 RMK AO2 SLP065 T02500183 10300 20244 403280200 58013
cycle: 6

Station Type Date Time Source
KOMA TAF 2021/09/20 06:22 UTC NOAA

TAF KOMA 200520Z 2006/2106 16016KT P6SM FEW250 WS020/19040KT
TEMPO 2011/2015 4SM -TSRA BKN040CB
FM201900 32015G23KT P6SM BKN035
FM202300 33016KT P6SM SCT080

Example: see airport list